• Join FlightAware (Why Join?)
  • Login
  • US Flag 
06:26AM EDT


 

Airport Tracker/Info


-or-


 

Live Flight TrackerFlight Track Log ✈ ASQ4592 ✈ 28-Apr-2012 ✈ KGRR - KIAH

Flight Track Log - Related Links

Times and Time Zones

All times are in EDT time to prevent confusion due to time zone crossing. See the ASQ4592 flight status page for this flight to view local times or setup timezone preferences in your user account.

Time Position Orientation Groundspeed Altitude Reporting Facility
EDT Latitude Longitude Course Direction KTS MPH feet Rate Location/Type
03:02PM 42.7705 -85.6295 63° Northeast  Level FlightAware Approximate
03:03PM 42.8350 -85.4594 217° Southwest 242 278 5,500  Level Chicago Center
03:04PM 42.7706 -85.5256 214° Southwest 269 310 7,800 2,340 Climbing Chicago Center
03:05PM 42.7017 -85.5892 216° Southwest 282 325 10,200 1,800 Climbing Chicago Center
03:06PM 42.6250 -85.6642 212° Southwest 316 364 11,500 1,800 Climbing Chicago Center
03:07PM 42.5458 -85.7308 210° Southwest 339 390 13,900 1,800 Climbing Chicago Center
03:08PM 42.4725 -85.7886 208° Southwest 345 397 15,100 1,380 Climbing Chicago Center
03:09PM 42.3847 -85.8528 211° Southwest 352 405 16,700 1,380 Climbing Chicago Center
03:10PM 42.3014 -85.9192 209° Southwest 357 411 17,900 1,500 Climbing Chicago Center
03:11PM 42.2178 -85.9825 212° Southwest 352 405 19,700 1,500 Climbing Chicago Center
03:12PM 42.1364 -86.0511 227° Southwest 347 399 21,000 600 Climbing Chicago Center
03:13PM 42.0642 -86.1556 226° Southwest 354 407 21,000 240 Level Chicago Center
03:14PM 41.9839 -86.2686 229° Southwest 375 432 21,500 900 Climbing Chicago Center
03:15PM 41.9217 -86.3636 228° Southwest 380 437 22,800 1,380 Climbing Chicago Center
03:16PM 41.8514 -86.4672 227° Southwest 380 437 24,300 1,620 Climbing Chicago Center
03:17PM 41.7850 -86.5622 228° Southwest 375 432 26,100 1,620 Climbing Chicago Center
03:18PM 41.7186 -86.6597 227° Southwest 363 418 27,600 1,500 Climbing Chicago Center
03:19PM 41.6519 -86.7542 227° Southwest 358 412 29,200 1,500 Climbing Chicago Center
03:20PM 41.5853 -86.8486 227° Southwest 353 406 30,600 1,320 Climbing Chicago Center
03:21PM 41.5206 -86.9397 226° Southwest 348 400 31,900 1,200 Climbing Chicago Center
03:22PM 41.4556 -87.0308 226° Southwest 348 400 33,100 1,020 Climbing Chicago Center
03:23PM 41.3886 -87.1247 226° Southwest 348 400 34,000 960 Climbing Chicago Center
03:24PM 41.3236 -87.2153 226° Southwest 353 406 35,100 960 Climbing Chicago Center
03:25PM 41.2586 -87.3058 226° Southwest 353 406 36,000 420 Climbing Chicago Center
03:26PM 41.1894 -87.4019 227° Southwest 353 406 36,000  Level Chicago Center
03:27PM 41.1203 -87.5003 225° Southwest 358 412 36,000  Level Chicago Center
03:28PM 41.0425 -87.6017 228° Southwest 368 423 36,000  Level Chicago Center
03:29PM 40.9692 -87.7083 225° Southwest 383 441 36,000  Level Chicago Center
03:30PM 40.8933 -87.8089 227° Southwest 383 441 36,000  Level Chicago Center
03:31PM 40.8197 -87.9122 226° Southwest 383 441 36,000  Level Chicago Center
03:32PM 40.7458 -88.0125 226° Southwest 383 441 36,000  Level Chicago Center
03:33PM 40.6739 -88.1097 226° Southwest 383 441 36,000  Level Chicago Center
03:34PM 40.6019 -88.2069 226° Southwest 383 441 36,000  Level Chicago Center
03:35PM 40.5300 -88.3036 226° Southwest 383 441 36,000  Level Chicago Center
03:36PM 40.4619 -88.3975 226° Southwest 377 434 36,000  Level Chicago Center
03:37PM 40.3381 -88.5642 225° Southwest 358 412 36,000  Level Kansas City Center
03:38PM 40.2678 -88.6572 226° Southwest 358 412 36,000  Level Kansas City Center
03:39PM 40.1992 -88.7497 224° Southwest 358 412 36,000  Level Kansas City Center
03:40PM 40.1283 -88.8397 227° Southwest 364 419 36,000  Level Kansas City Center
03:41PM 40.0581 -88.9375 224° Southwest 364 419 36,000  Level Kansas City Center
03:42PM 39.9833 -89.0328 219° Southwest 370 426 36,000  Level Kansas City Center
03:43PM 39.9036 -89.1172 209° Southwest 375 432 36,000  Level Kansas City Center
03:44PM 39.8108 -89.1839 208° Southwest 375 432 36,000  Level Kansas City Center
03:45PM 39.7178 -89.2475 208° Southwest 380 437 36,000 -60 Level Kansas City Center
03:46PM 39.6267 -89.3108 209° Southwest 380 437 35,900  Descending Kansas City Center
03:47PM 39.5358 -89.3764 207° Southwest 380 437 36,000  Climbing Kansas City Center
03:48PM 39.4364 -89.4428 209° Southwest 385 443 36,000  Level Kansas City Center
03:49PM 39.3453 -89.5083 208° Southwest 385 443 36,000  Level Kansas City Center
03:50PM 39.2561 -89.5706 207° Southwest 396 456 36,000  Level Kansas City Center
03:51PM 39.1486 -89.6422 208° Southwest 402 463 36,000  Level Kansas City Center
03:52PM 39.0594 -89.7044 208° Southwest 402 463 36,000  Level Kansas City Center
03:53PM 38.9519 -89.7783 208° Southwest 402 463 36,000  Level Kansas City Center
03:54PM 38.8625 -89.8400 209° Southwest 402 463 36,000  Level Kansas City Center
03:55PM 38.7672 -89.9072 209° Southwest 402 463 36,000  Level Kansas City Center
03:56PM 38.6594 -89.9833 207° Southwest 402 463 36,000  Level Kansas City Center
03:57PM 38.5578 -90.0506 206° Southwest 412 474 36,000  Level Kansas City Center
03:58PM 38.4600 -90.1122 207° Southwest 405 466 36,000  Level Kansas City Center
03:59PM 38.3642 -90.1733 208° Southwest 400 460 36,000  Level Kansas City Center
04:00PM 38.2747 -90.2342 207° Southwest 400 460 36,000  Level Kansas City Center
04:01PM 38.1686 -90.3036 208° Southwest 400 460 36,000  Level Kansas City Center
04:02PM 38.0789 -90.3642 208° Southwest 400 460 36,000  Level Kansas City Center
04:03PM 37.9750 -90.4331 208° Southwest 400 460 36,000  Level Kansas City Center
04:04PM 37.8853 -90.4933 206° Southwest 400 460 36,000  Level Kansas City Center
04:05PM 37.7850 -90.5539 208° Southwest 405 466 36,000  Level Kansas City Center
04:06PM 37.6892 -90.6192 207° Southwest 400 460 36,000  Level Kansas City Center
04:07PM 37.5892 -90.6847 207° Southwest 405 466 36,000  Level Kansas City Center
04:09PM 37.3936 -90.8111 207° Southwest 381 438 36,000  Level Memphis Center
04:10PM 37.2850 -90.8808 206° Southwest 389 448 36,000  Level Memphis Center
04:11PM 37.1847 -90.9428 208° Southwest 389 448 36,000  Level Memphis Center
04:12PM 37.0844 -91.0094 209° Southwest 400 460 36,000  Level Memphis Center
04:13PM 36.9944 -91.0711 206° Southwest 409 471 36,000  Level Memphis Center
04:14PM 36.8878 -91.1350 207° Southwest 409 471 36,000  Level Memphis Center
04:15PM 36.7894 -91.1964 207° Southwest 409 471 36,000  Level Memphis Center
04:16PM 36.6911 -91.2600 209° Southwest 404 465 36,000  Level Memphis Center
04:17PM 36.5906 -91.3286 206° Southwest 404 465 36,000  Level Memphis Center
04:18PM 36.4922 -91.3894 207° Southwest 409 471 36,000  Level Memphis Center
04:19PM 36.4000 -91.4475 207° Southwest 415 478 36,000  Level Memphis Center
04:20PM 36.2992 -91.5106 206° Southwest 410 472 36,000  Level Memphis Center
04:21PM 36.1964 -91.5736 203° Southwest 410 472 36,000  Level Memphis Center
04:22PM 36.0917 -91.6283 198° South 410 472 36,000  Level Memphis Center
04:23PM 35.9869 -91.6706 198° South 410 472 36,000  Level Memphis Center
04:24PM 35.8678 -91.7172 197° South 410 472 36,000  Level Memphis Center
04:25PM 35.7589 -91.7589 198° South 410 472 36,000  Level Memphis Center
04:26PM 35.6478 -91.8031 199° South 410 472 36,000  Level Memphis Center
04:27PM 35.5408 -91.8472 197° South 410 472 36,000  Level Memphis Center
04:28PM 35.4278 -91.8883 198° South 415 478 36,000  Level Memphis Center
04:29PM 35.3186 -91.9322 198° South 415 478 36,000  Level Memphis Center
04:30PM 35.2222 -91.9711 198° South 420 483 36,000  Level Memphis Center
04:31PM 35.1092 -92.0147 197° South 420 483 36,000  Level Memphis Center
04:32PM 35.0000 -92.0556 198° South 425 489 36,000  Level Memphis Center
04:33PM 34.8908 -92.0989 197° South 420 483 36,000  Level Memphis Center
04:34PM 34.7797 -92.1397 198° South 420 483 36,000  Level Memphis Center
04:35PM 34.6706 -92.1828 189° South 420 483 36,000  Level Memphis Center
04:36PM 34.5536 -92.2056 188° South 420 483 36,000  Level Memphis Center
04:37PM 34.4383 -92.2258 189° South 420 483 36,000  Level Memphis Center
04:38PM 34.3211 -92.2483 188° South 425 489 36,000  Level Memphis Center
04:39PM 34.2083 -92.2686 190° South 425 489 36,000  Level Memphis Center
04:40PM 34.0911 -92.2933 188° South 430 495 36,000  Level Memphis Center
04:42PM 33.9053 -92.3261 188° South 401 461 36,000  Level Fort Worth Center
04:43PM 33.7872 -92.3456 190° South 411 473 36,000  Level Fort Worth Center
04:44PM 33.6714 -92.3694 188° South 424 488 36,000  Level Fort Worth Center
04:45PM 33.5469 -92.3892 189° South 424 488 36,000  Level Fort Worth Center
04:46PM 33.4289 -92.4108 189° South 424 488 36,000  Level Fort Worth Center
04:47PM 33.3150 -92.4322 190° South 424 488 36,000  Level Fort Worth Center
04:48PM 33.1969 -92.4561 188° South 424 488 36,000  Level Fort Worth Center
04:49PM 33.0808 -92.4750 189° South 424 488 36,000  Level Fort Worth Center
04:50PM 32.9606 -92.4967 190° South 424 488 36,000  Level Fort Worth Center
04:52PM 32.7150 -92.5461 190° South 428 493 36,000  Level Houston Center
04:53PM 32.5983 -92.5694 187° South 428 493 36,000  Level Houston Center
04:54PM 32.4814 -92.5856 191° South 428 493 36,000  Level Houston Center
04:55PM 32.3667 -92.6117 189° South 428 493 36,000  Level Houston Center
04:56PM 32.2497 -92.6325 188° South 428 493 36,000  Level Houston Center
04:57PM 32.1328 -92.6508 188° South 428 493 36,000  Level Houston Center
04:58PM 32.0181 -92.6694 207° Southwest 428 493 36,000  Level Houston Center
04:59PM 31.9153 -92.7319 221° Southwest 410 472 36,000  Level Houston Center
05:00PM 31.8292 -92.8189 219° Southwest 410 472 36,000  Level Houston Center
05:01PM 31.7386 -92.9056 220° Southwest 415 478 36,000  Level Houston Center
05:02PM 31.6503 -92.9922 218° Southwest 415 478 36,000  Level Houston Center
05:03PM 31.5617 -93.0739 221° Southwest 420 483 36,000  Level Houston Center
05:04PM 31.4731 -93.1650 218° Southwest 420 483 36,000  Level Houston Center
05:05PM 31.3847 -93.2464 219° Southwest 420 483 36,000  Level Houston Center
05:06PM 31.2853 -93.3419 218° Southwest 426 490 36,000  Level Houston Center
05:07PM 31.2031 -93.4183 220° Southwest 426 490 36,000 -180 Level Houston Center
05:08PM 31.1036 -93.5158 219° Southwest 426 490 35,700 -1,140 Descending Houston Center
05:09PM 31.0128 -93.6014 220° Southwest 426 490 33,800 -2,100 Descending Houston Center
05:10PM 30.9217 -93.6892 218° Southwest 426 490 31,600 -2,280 Descending Houston Center
05:11PM 30.8286 -93.7744 220° Southwest 426 490 29,300 -2,340 Descending Houston Center
05:12PM 30.7375 -93.8619 218° Southwest 426 490 27,000 -2,460 Descending Houston Center
05:13PM 30.6506 -93.9419 218° Southwest 420 483 24,400 -2,700 Descending Houston Center
05:14PM 30.5636 -94.0222 220° Southwest 409 471 21,700 -2,700 Descending Houston Center
05:15PM 30.4831 -94.0997 219° Southwest 398 458 19,000 -2,700 Descending Houston Center
05:16PM 30.4067 -94.1725 218° Southwest 385 443 16,300 -2,700 Descending Houston Center
05:17PM 30.3281 -94.2428 220° Southwest 373 429 13,600 -2,160 Descending Houston Center
05:18PM 30.2556 -94.3131 224° Southwest 356 410 12,000 -840 Descending Houston Center
05:19PM 30.1894 -94.3858 247° West 344 396 12,000 -600 Level Houston Center
05:20PM 30.1542 -94.4808 247° West 329 379 10,800 -1,260 Descending Houston Center
05:21PM 30.1253 -94.5594 247° West 316 364 9,500 -1,380 Descending Houston Center
05:22PM 30.0944 -94.6425 246° West 300 345 8,100 -780 Descending Houston Center
05:23PM 30.0633 -94.7233 253° West 289 333 8,000 -420 Descending Houston Center
05:24PM 30.0406 -94.8114 254° West 289 333 7,300 -600 Descending Houston Center
05:25PM 30.0219 -94.8850 253° West 276 318 6,800 -600 Descending Houston Center
05:26PM 30.0036 -94.9539 258° West 249 287 6,100 -900 Descending Houston Center
05:27PM 29.9942 -95.0042 268° West 225 259 5,500 -1,200 Descending Houston Center
05:28PM 29.9925 -95.0711 268° West 231 266 4,400 -1,020 Descending Houston Center
05:28PM 29.9917 -95.1022 270° West 237 273 4,000 -900 Descending Houston Center
05:29PM 29.9919 -95.1717 271° West 232 267 3,000 -1,200 Descending Houston Center
05:30PM 29.9925 -95.2342 268° West 217 250 1,700 -1,200 Descending Houston Center
05:31PM 29.9914 -95.2772 268° West 162 186 1,100 -1,020 Descending Houston Center